sensor_id;sensor_type;location;lat;lon;timestamp;pressure;altitude;pressure_sealevel;temperature;humidity
70217;BME280;65567;55.684;37.570;2023-09-19T00:00:20;99685.16;;;16.35;63.00
70217;BME280;65567;55.684;37.570;2023-09-19T00:05:20;99685.97;;;16.23;63.44
70217;BME280;65567;55.684;37.570;2023-09-19T00:07:52;99685.66;;;16.14;63.65
70217;BME280;65567;55.684;37.570;2023-09-19T00:10:24;99685.22;;;16.08;63.86
70217;BME280;65567;55.684;37.570;2023-09-19T00:12:52;99688.81;;;16.07;63.81
70217;BME280;65567;55.684;37.570;2023-09-19T00:15:21;99681.94;;;16.04;63.84
70217;BME280;65567;55.684;37.570;2023-09-19T00:17:47;99685.09;;;16.09;63.90
70217;BME280;65567;55.684;37.570;2023-09-19T00:20:14;99691.16;;;16.11;63.53
70217;BME280;65567;55.684;37.570;2023-09-19T00:22:43;99685.66;;;16.14;63.60
70217;BME280;65567;55.684;37.570;2023-09-19T00:25:09;99685.88;;;16.11;63.96
70217;BME280;65567;55.684;37.570;2023-09-19T00:27:38;99679.13;;;15.93;64.54
70217;BME280;65567;55.684;37.570;2023-09-19T00:30:11;99677.69;;;15.74;65.33
70217;BME280;65567;55.684;37.570;2023-09-19T00:32:46;99686.00;;;15.68;65.27
70217;BME280;65567;55.684;37.570;2023-09-19T00:35:15;99674.69;;;15.66;65.46
70217;BME280;65567;55.684;37.570;2023-09-19T00:37:41;99682.16;;;15.59;65.31
70217;BME280;65567;55.684;37.570;2023-09-19T00:40:08;99682.94;;;15.47;65.61
70217;BME280;65567;55.684;37.570;2023-09-19T00:42:46;99676.66;;;15.35;65.58
70217;BME280;65567;55.684;37.570;2023-09-19T00:45:13;99698.22;;;15.42;65.47
70217;BME280;65567;55.684;37.570;2023-09-19T00:47:41;99694.66;;;15.43;65.46
70217;BME280;65567;55.684;37.570;2023-09-19T00:50:21;99699.34;;;15.52;65.02
70217;BME280;65567;55.684;37.570;2023-09-19T00:52:49;99700.25;;;15.65;64.77
70217;BME280;65567;55.684;37.570;2023-09-19T00:55:16;99701.25;;;15.77;64.64
70217;BME280;65567;55.684;37.570;2023-09-19T00:57:45;99680.03;;;15.79;64.27
70217;BME280;65567;55.684;37.570;2023-09-19T01:00:12;99695.09;;;15.91;63.78
70217;BME280;65567;55.684;37.570;2023-09-19T01:02:43;99693.22;;;15.93;63.68
70217;BME280;65567;55.684;37.570;2023-09-19T01:05:10;99685.56;;;15.89;63.54
70217;BME280;65567;55.684;37.570;2023-09-19T01:07:36;99686.78;;;15.97;63.06
70217;BME280;65567;55.684;37.570;2023-09-19T01:10:15;99685.56;;;15.89;63.09
70217;BME280;65567;55.684;37.570;2023-09-19T01:29:00;99683.13;;;15.58;63.62
70217;BME280;65567;55.684;37.570;2023-09-19T01:31:30;99682.56;;;15.53;63.60
70217;BME280;65567;55.684;37.570;2023-09-19T01:34:00;99681.69;;;15.52;63.73
70217;BME280;65567;55.684;37.570;2023-09-19T01:36:35;99679.81;;;15.55;63.48
70217;BME280;65567;55.684;37.570;2023-09-19T01:39:11;99684.78;;;15.59;63.59
70217;BME280;65567;55.684;37.570;2023-09-19T01:41:47;99680.53;;;15.57;63.68
70217;BME280;65567;55.684;37.570;2023-09-19T01:44:44;99677.56;;;15.48;63.68
70217;BME280;65567;55.684;37.570;2023-09-19T01:47:36;99668.75;;;15.35;64.00
70217;BME280;65567;55.684;37.570;2023-09-19T01:50:26;99671.38;;;15.35;64.09
70217;BME280;65567;55.684;37.570;2023-09-19T01:53:22;99666.09;;;15.35;63.74
70217;BME280;65567;55.684;37.570;2023-09-19T01:55:50;99666.09;;;15.35;63.86
70217;BME280;65567;55.684;37.570;2023-09-19T01:58:34;99660.72;;;15.36;63.45
70217;BME280;65567;55.684;37.570;2023-09-19T02:01:04;99659.13;;;15.34;63.49
70217;BME280;65567;55.684;37.570;2023-09-19T02:03:34;99653.88;;;15.19;63.47
70217;BME280;65567;55.684;37.570;2023-09-19T02:06:01;99658.59;;;15.14;63.67
70217;BME280;65567;55.684;37.570;2023-09-19T02:08:31;99655.84;;;15.16;63.64
70217;BME280;65567;55.684;37.570;2023-09-19T02:10:59;99651.38;;;15.03;63.83
70217;BME280;65567;55.684;37.570;2023-09-19T02:13:25;99653.44;;;14.98;64.18
70217;BME280;65567;55.684;37.570;2023-09-19T02:15:53;99638.81;;;14.93;64.34
70217;BME280;65567;55.684;37.570;2023-09-19T02:18:19;99656.94;;;14.84;64.32
70217;BME280;65567;55.684;37.570;2023-09-19T02:20:46;99646.75;;;14.78;64.64
70217;BME280;65567;55.684;37.570;2023-09-19T02:23:12;99650.06;;;14.67;64.82
70217;BME280;65567;55.684;37.570;2023-09-19T02:25:38;99644.28;;;14.61;64.94
70217;BME280;65567;55.684;37.570;2023-09-19T02:28:06;99639.00;;;14.61;65.20
70217;BME280;65567;55.684;37.570;2023-09-19T02:30:32;99636.63;;;14.56;65.32
70217;BME280;65567;55.684;37.570;2023-09-19T02:32:59;99641.25;;;14.52;65.12
70217;BME280;65567;55.684;37.570;2023-09-19T02:35:27;99639.38;;;14.54;65.06
70217;BME280;65567;55.684;37.570;2023-09-19T02:37:53;99643.81;;;14.54;64.99
70217;BME280;65567;55.684;37.570;2023-09-19T02:40:19;99643.50;;;14.59;65.04
70217;BME280;65567;55.684;37.570;2023-09-19T02:42:46;99646.16;;;14.59;64.56
70217;BME280;65567;55.684;37.570;2023-09-19T02:45:18;99649.91;;;14.54;64.67
70217;BME280;65567;55.684;37.570;2023-09-19T02:47:45;99647.25;;;14.40;65.34
70217;BME280;65567;55.684;37.570;2023-09-19T02:50:11;99655.81;;;14.29;65.63
70217;BME280;65567;55.684;37.570;2023-09-19T02:52:40;99646.13;;;14.30;65.63
70217;BME280;65567;55.684;37.570;2023-09-19T02:55:09;99642.91;;;14.25;65.62
70217;BME280;65567;55.684;37.570;2023-09-19T02:57:35;99647.59;;;14.19;65.76
70217;BME280;65567;55.684;37.570;2023-09-19T03:00:09;99642.59;;;14.15;65.88
70217;BME280;65567;55.684;37.570;2023-09-19T03:02:38;99645.31;;;14.13;66.00
70217;BME280;65567;55.684;37.570;2023-09-19T03:05:05;99652.09;;;14.17;66.12
70217;BME280;65567;55.684;37.570;2023-09-19T03:07:32;99650.44;;;14.16;65.89
70217;BME280;65567;55.684;37.570;2023-09-19T03:09:57;99652.97;;;14.18;66.08
70217;BME280;65567;55.684;37.570;2023-09-19T03:12:23;99633.94;;;14.13;66.12
70217;BME280;65567;55.684;37.570;2023-09-19T03:14:49;99646.25;;;14.12;66.26
70217;BME280;65567;55.684;37.570;2023-09-19T03:17:15;99634.41;;;14.05;66.42
70217;BME280;65567;55.684;37.570;2023-09-19T03:19:41;99640.25;;;14.10;66.55
70217;BME280;65567;55.684;37.570;2023-09-19T03:22:07;99646.84;;;14.17;66.41
70217;BME280;65567;55.684;37.570;2023-09-19T03:24:33;99646.84;;;14.17;66.72
70217;BME280;65567;55.684;37.570;2023-09-19T03:27:01;99653.25;;;14.28;66.28
70217;BME280;65567;55.684;37.570;2023-09-19T03:29:26;99643.28;;;14.33;66.25
70217;BME280;65567;55.684;37.570;2023-09-19T03:31:52;99646.59;;;14.36;65.94
70217;BME280;65567;55.684;37.570;2023-09-19T03:34:20;99642.34;;;14.34;65.95
70217;BME280;65567;55.684;37.570;2023-09-19T03:36:46;99642.25;;;14.35;65.94
70217;BME280;65567;55.684;37.570;2023-09-19T03:39:12;99638.59;;;14.38;65.86
70217;BME280;65567;55.684;37.570;2023-09-19T03:41:37;99641.63;;;14.32;66.20
70217;BME280;65567;55.684;37.570;2023-09-19T03:44:04;99645.94;;;14.33;66.17
70217;BME280;65567;55.684;37.570;2023-09-19T03:46:29;99640.00;;;14.29;66.18
70217;BME280;65567;55.684;37.570;2023-09-19T03:48:55;99629.47;;;14.29;66.20
70217;BME280;65567;55.684;37.570;2023-09-19T03:51:21;99640.66;;;14.33;66.07
70217;BME280;65567;55.684;37.570;2023-09-19T03:53:47;99641.44;;;14.35;65.90
70217;BME280;65567;55.684;37.570;2023-09-19T03:56:14;99639.47;;;14.38;66.19
70217;BME280;65567;55.684;37.570;2023-09-19T03:58:40;99635.22;;;14.36;66.06
70217;BME280;65567;55.684;37.570;2023-09-19T04:01:06;99635.00;;;14.25;66.02
70217;BME280;65567;55.684;37.570;2023-09-19T04:03:35;99628.31;;;14.19;66.35
70217;BME280;65567;55.684;37.570;2023-09-19T04:06:12;99641.22;;;14.24;66.36
70217;BME280;65567;55.684;37.570;2023-09-19T04:08:38;99642.44;;;14.32;66.11
70217;BME280;65567;55.684;37.570;2023-09-19T04:11:04;99636.72;;;14.40;66.06
70217;BME280;65567;55.684;37.570;2023-09-19T04:13:29;99633.53;;;14.49;65.64
70217;BME280;65567;55.684;37.570;2023-09-19T04:15:55;99640.22;;;14.55;65.70
70217;BME280;65567;55.684;37.570;2023-09-19T04:18:21;99633.91;;;14.58;65.29
70217;BME280;65567;55.684;37.570;2023-09-19T04:20:52;99632.88;;;14.60;65.26
70217;BME280;65567;55.684;37.570;2023-09-19T04:23:18;99639.41;;;14.69;65.03
70217;BME280;65567;55.684;37.570;2023-09-19T04:25:46;99629.06;;;14.66;64.88
70217;BME280;65567;55.684;37.570;2023-09-19T04:28:13;99623.78;;;14.66;64.90
70217;BME280;65567;55.684;37.570;2023-09-19T04:30:40;99623.88;;;14.64;64.92
70217;BME280;65567;55.684;37.570;2023-09-19T04:33:07;99619.63;;;14.62;65.00
70217;BME280;65567;55.684;37.570;2023-09-19T04:35:33;99611.59;;;14.63;65.03
70217;BME280;65567;55.684;37.570;2023-09-19T04:38:00;99608.06;;;14.64;65.13
70217;BME280;65567;55.684;37.570;2023-09-19T04:40:26;99600.78;;;14.68;65.07
70217;BME280;65567;55.684;37.570;2023-09-19T04:42:56;99603.72;;;14.78;64.83
70217;BME280;65567;55.684;37.570;2023-09-19T04:45:25;99604.75;;;14.75;65.05
70217;BME280;65567;55.684;37.570;2023-09-19T04:47:52;99617.47;;;14.83;64.68
70217;BME280;65567;55.684;37.570;2023-09-19T04:50:18;99613.59;;;14.89;64.88
70217;BME280;65567;55.684;37.570;2023-09-19T04:52:45;99613.88;;;14.98;64.43
70217;BME280;65567;55.684;37.570;2023-09-19T04:55:12;99620.53;;;15.04;64.25
70217;BME280;65567;55.684;37.570;2023-09-19T04:57:43;99610.34;;;15.12;64.02
70217;BME280;65567;55.684;37.570;2023-09-19T05:00:13;99612.97;;;15.12;63.74
70217;BME280;65567;55.684;37.570;2023-09-19T05:02:40;99615.44;;;15.15;63.68
70217;BME280;65567;55.684;37.570;2023-09-19T05:05:10;99609.13;;;15.18;63.68
70217;BME280;65567;55.684;37.570;2023-09-19T05:07:41;99613.16;;;15.24;63.21
70217;BME280;65567;55.684;37.570;2023-09-19T05:10:08;99615.78;;;15.24;62.94
70217;BME280;65567;55.684;37.570;2023-09-19T05:12:34;99613.59;;;15.30;62.91
70217;BME280;65567;55.684;37.570;2023-09-19T05:15:07;99604.63;;;15.33;62.51
70217;BME280;65567;55.684;37.570;2023-09-19T05:17:33;99596.22;;;15.41;62.41
70217;BME280;65567;55.684;37.570;2023-09-19T05:20:02;99593.47;;;15.42;62.47
70217;BME280;65567;55.684;37.570;2023-09-19T05:22:57;99590.97;;;15.53;62.09
70217;BME280;65567;55.684;37.570;2023-09-19T05:25:24;99596.16;;;15.55;61.86
70217;BME280;65567;55.684;37.570;2023-09-19T05:27:53;99600.13;;;15.75;61.45
70217;BME280;65567;55.684;37.570;2023-09-19T05:30:19;99609.47;;;15.81;60.89
70217;BME280;65567;55.684;37.570;2023-09-19T05:32:45;99606.09;;;15.92;60.50
70217;BME280;65567;55.684;37.570;2023-09-19T05:35:11;99587.84;;;16.01;60.00
70217;BME280;65567;55.684;37.570;2023-09-19T05:37:38;99598.94;;;16.07;60.03
70217;BME280;65567;55.684;37.570;2023-09-19T05:40:04;99587.97;;;16.39;59.19
70217;BME280;65567;55.684;37.570;2023-09-19T05:42:34;99586.44;;;16.73;58.14
70217;BME280;65567;55.684;37.570;2023-09-19T05:45:00;99579.16;;;17.14;57.26
70217;BME280;65567;55.684;37.570;2023-09-19T05:47:25;99587.00;;;17.64;55.90
70217;BME280;65567;55.684;37.570;2023-09-19T05:49:51;99585.84;;;18.15;54.44
70217;BME280;65567;55.684;37.570;2023-09-19T05:52:17;99568.75;;;18.30;53.49
70217;BME280;65567;55.684;37.570;2023-09-19T05:54:45;99575.41;;;18.47;53.24
70217;BME280;65567;55.684;37.570;2023-09-19T05:57:10;99580.81;;;18.80;52.60
70217;BME280;65567;55.684;37.570;2023-09-19T05:59:37;99574.44;;;19.05;51.76
70217;BME280;65567;55.684;37.570;2023-09-19T06:02:05;99577.47;;;19.33;51.48
70217;BME280;65567;55.684;37.570;2023-09-19T06:04:32;99582.69;;;19.56;50.80
70217;BME280;65567;55.684;37.570;2023-09-19T06:06:58;99585.81;;;19.93;49.97
70217;BME280;65567;55.684;37.570;2023-09-19T06:09:24;99576.06;;;20.25;49.24
70217;BME280;65567;55.684;37.570;2023-09-19T06:11:49;99566.53;;;20.43;48.64
70217;BME280;65567;55.684;37.570;2023-09-19T06:14:15;99573.34;;;20.67;47.85
70217;BME280;65567;55.684;37.570;2023-09-19T06:16:43;99565.00;;;20.82;47.67
70217;BME280;65567;55.684;37.570;2023-09-19T06:19:09;99567.63;;;21.32;46.77
70217;BME280;65567;55.684;37.570;2023-09-19T06:21:36;99572.44;;;21.58;45.95
70217;BME280;65567;55.684;37.570;2023-09-19T06:24:02;99577.47;;;21.81;45.03
70217;BME280;65567;55.684;37.570;2023-09-19T06:26:28;99562.75;;;21.86;44.83
70217;BME280;65567;55.684;37.570;2023-09-19T06:28:54;99572.69;;;21.94;44.72
70217;BME280;65567;55.684;37.570;2023-09-19T06:31:21;99571.38;;;22.08;44.63
70217;BME280;65567;55.684;37.570;2023-09-19T06:33:48;99569.53;;;22.28;43.91
70217;BME280;65567;55.684;37.570;2023-09-19T06:36:14;99563.94;;;22.02;44.27
70217;BME280;65567;55.684;37.570;2023-09-19T06:38:40;99560.50;;;21.82;44.60
70217;BME280;65567;55.684;37.570;2023-09-19T06:41:06;99556.97;;;21.52;45.37
70217;BME280;65567;55.684;37.570;2023-09-19T06:43:35;99560.34;;;21.83;45.26
70217;BME280;65567;55.684;37.570;2023-09-19T06:46:01;99560.56;;;22.19;44.07
70217;BME280;65567;55.684;37.570;2023-09-19T06:48:28;99573.47;;;22.24;43.92
70217;BME280;65567;55.684;37.570;2023-09-19T06:50:59;99570.81;;;22.04;44.20
70217;BME280;65567;55.684;37.570;2023-09-19T06:53:31;99563.69;;;22.05;44.26
70217;BME280;65567;55.684;37.570;2023-09-19T06:55:58;99567.78;;;21.99;44.50
70217;BME280;65567;55.684;37.570;2023-09-19T06:58:26;99567.69;;;21.61;45.24
70217;BME280;65567;55.684;37.570;2023-09-19T07:00:52;99564.69;;;21.45;45.67
70217;BME280;65567;55.684;37.570;2023-09-19T07:03:19;99567.06;;;21.38;45.87
70217;BME280;65567;55.684;37.570;2023-09-19T07:05:47;99562.88;;;21.36;46.19
70217;BME280;65567;55.684;37.570;2023-09-19T07:08:13;99567.47;;;21.53;45.63
70217;BME280;65567;55.684;37.570;2023-09-19T07:10:40;99570.34;;;21.61;45.51
70217;BME280;65567;55.684;37.570;2023-09-19T07:13:07;99568.81;;;21.59;45.35
70217;BME280;65567;55.684;37.570;2023-09-19T07:15:37;99566.66;;;21.53;45.93
70217;BME280;65567;55.684;37.570;2023-09-19T07:18:12;99570.19;;;21.63;45.75
70217;BME280;65567;55.684;37.570;2023-09-19T07:20:38;99555.00;;;21.54;45.83
70217;BME280;65567;55.684;37.570;2023-09-19T07:23:03;99545.59;;;21.50;45.90
70217;BME280;65567;55.684;37.570;2023-09-19T07:25:30;99557.53;;;21.45;45.95
70217;BME280;65567;55.684;37.570;2023-09-19T07:27:59;99554.72;;;21.47;46.18
70217;BME280;65567;55.684;37.570;2023-09-19T07:30:26;99567.09;;;21.77;45.93
70217;BME280;65567;55.684;37.570;2023-09-19T07:32:52;99553.56;;;22.08;45.40
70217;BME280;65567;55.684;37.570;2023-09-19T07:35:18;99558.16;;;22.36;44.65
70217;BME280;65567;55.684;37.570;2023-09-19T07:37:48;99563.50;;;22.64;43.90
70217;BME280;65567;55.684;37.570;2023-09-19T07:40:21;99576.13;;;22.71;43.61
70217;BME280;65567;55.684;37.570;2023-09-19T07:42:50;99569.03;;;22.52;44.08
70217;BME280;65567;55.684;37.570;2023-09-19T07:45:16;99558.25;;;22.44;44.14
70217;BME280;65567;55.684;37.570;2023-09-19T07:47:46;99555.03;;;22.40;44.10
70217;BME280;65567;55.684;37.570;2023-09-19T07:50:13;99554.66;;;22.16;44.57
70217;BME280;65567;55.684;37.570;2023-09-19T07:52:40;99557.22;;;22.07;44.95
70217;BME280;65567;55.684;37.570;2023-09-19T07:55:06;99549.78;;;22.01;44.86
70217;BME280;65567;55.684;37.570;2023-09-19T07:57:37;99546.19;;;21.73;45.52
70217;BME280;65567;55.684;37.570;2023-09-19T08:00:03;99546.31;;;21.71;45.96
70217;BME280;65567;55.684;37.570;2023-09-19T08:02:36;99544.25;;;21.55;46.13
70217;BME280;65567;55.684;37.570;2023-09-19T08:05:06;99529.88;;;21.46;46.38
70217;BME280;65567;55.684;37.570;2023-09-19T08:07:32;99530.31;;;21.71;46.10
70217;BME280;65567;55.684;37.570;2023-09-19T08:09:58;99521.00;;;21.95;45.69
70217;BME280;65567;55.684;37.570;2023-09-19T08:12:24;99523.22;;;22.09;45.58
70217;BME280;65567;55.684;37.570;2023-09-19T08:14:50;99529.25;;;22.21;45.30
70217;BME280;65567;55.684;37.570;2023-09-19T08:17:16;99529.75;;;22.25;45.04
70217;BME280;65567;55.684;37.570;2023-09-19T08:19:42;99531.00;;;22.40;45.08
70217;BME280;65567;55.684;37.570;2023-09-19T08:22:10;99520.44;;;22.76;44.44
70217;BME280;65567;55.684;37.570;2023-09-19T08:24:36;99519.41;;;23.05;43.61
70217;BME280;65567;55.684;37.570;2023-09-19T08:27:04;99515.72;;;23.16;43.26
70217;BME280;65567;55.684;37.570;2023-09-19T08:29:30;99518.81;;;23.12;43.37
70217;BME280;65567;55.684;37.570;2023-09-19T08:31:57;99509.41;;;23.07;43.55
70217;BME280;65567;55.684;37.570;2023-09-19T08:34:23;99508.06;;;23.21;43.26
70217;BME280;65567;55.684;37.570;2023-09-19T08:36:53;99511.75;;;23.20;43.18
70217;BME280;65567;55.684;37.570;2023-09-19T08:39:22;99510.91;;;22.92;43.83
70217;BME280;65567;55.684;37.570;2023-09-19T08:41:48;99504.88;;;22.90;43.88
70217;BME280;65567;55.684;37.570;2023-09-19T08:44:14;99498.47;;;22.83;43.83
70217;BME280;65567;55.684;37.570;2023-09-19T08:46:41;99491.25;;;22.65;44.45
70217;BME280;65567;55.684;37.570;2023-09-19T08:50:10;99495.28;;;22.51;44.61
70217;BME280;65567;55.684;37.570;2023-09-19T08:52:25;99493.84;;;22.57;44.63
70217;BME280;65567;55.684;37.570;2023-09-19T08:54:57;99492.25;;;22.64;44.47
70217;BME280;65567;55.684;37.570;2023-09-19T08:57:26;99493.88;;;22.47;44.49
70217;BME280;65567;55.684;37.570;2023-09-19T08:59:55;99485.94;;;22.37;44.92
70217;BME280;65567;55.684;37.570;2023-09-19T09:02:22;99476.78;;;22.30;45.18
70217;BME280;65567;55.684;37.570;2023-09-19T09:04:49;99483.41;;;22.36;45.44
70217;BME280;65567;55.684;37.570;2023-09-19T09:07:16;99482.81;;;22.42;44.96
70217;BME280;65567;55.684;37.570;2023-09-19T09:09:44;99481.56;;;22.36;45.20
70217;BME280;65567;55.684;37.570;2023-09-19T09:12:14;99483.59;;;22.15;45.41
70217;BME280;65567;55.684;37.570;2023-09-19T09:14:44;99490.13;;;22.02;46.04
70217;BME280;65567;55.684;37.570;2023-09-19T09:17:11;99482.00;;;21.94;46.45
70217;BME280;65567;55.684;37.570;2023-09-19T09:19:37;99495.75;;;21.99;46.21
70217;BME280;65567;55.684;37.570;2023-09-19T09:22:10;99493.09;;;21.99;46.19
70217;BME280;65567;55.684;37.570;2023-09-19T09:24:37;99491.53;;;21.97;46.57
70217;BME280;65567;55.684;37.570;2023-09-19T09:27:05;99490.78;;;22.04;46.28
70217;BME280;65567;55.684;37.570;2023-09-19T09:29:46;99491.59;;;22.15;46.33
70217;BME280;65567;55.684;37.570;2023-09-19T09:32:31;99476.50;;;22.33;45.95
70217;BME280;65567;55.684;37.570;2023-09-19T09:35:03;99479.41;;;22.50;45.99
70217;BME280;65567;55.684;37.570;2023-09-19T09:37:35;99477.00;;;22.74;45.62
70217;BME280;65567;55.684;37.570;2023-09-19T09:40:04;99473.34;;;22.75;45.50
70217;BME280;65567;55.684;37.570;2023-09-19T09:42:42;99468.94;;;23.02;45.17
70217;BME280;65567;55.684;37.570;2023-09-19T09:45:23;99469.25;;;23.35;44.38
70217;BME280;65567;55.684;37.570;2023-09-19T09:47:58;99467.13;;;23.65;43.52
70217;BME280;65567;55.684;37.570;2023-09-19T09:52:55;99467.44;;;23.88;43.15
70217;BME280;65567;55.684;37.570;2023-09-19T09:55:58;99468.25;;;24.07;42.98
70217;BME280;65567;55.684;37.570;2023-09-19T09:58:25;99469.13;;;24.16;42.65
70217;BME280;65567;55.684;37.570;2023-09-19T10:00:58;99451.63;;;23.95;42.74
70217;BME280;65567;55.684;37.570;2023-09-19T10:03:33;99464.41;;;23.83;43.21
70217;BME280;65567;55.684;37.570;2023-09-19T10:06:00;99460.75;;;23.84;43.28
70217;BME280;65567;55.684;37.570;2023-09-19T10:08:34;99456.97;;;23.95;43.04
70217;BME280;65567;55.684;37.570;2023-09-19T10:11:15;99456.19;;;24.03;43.14
70217;BME280;65567;55.684;37.570;2023-09-19T10:13:42;99444.34;;;24.14;42.85
70217;BME280;65567;55.684;37.570;2023-09-19T10:16:12;99453.88;;;24.42;42.69
70217;BME280;65567;55.684;37.570;2023-09-19T10:18:41;99446.63;;;24.78;42.26
70217;BME280;65567;55.684;37.570;2023-09-19T10:21:09;99445.97;;;25.08;41.53
70217;BME280;65567;55.684;37.570;2023-09-19T10:23:36;99434.94;;;25.36;40.84
70217;BME280;65567;55.684;37.570;2023-09-19T10:26:05;99433.22;;;25.77;40.34
70217;BME280;65567;55.684;37.570;2023-09-19T10:28:32;99425.34;;;26.23;39.90
70217;BME280;65567;55.684;37.570;2023-09-19T10:31:00;99419.53;;;26.43;38.62
70217;BME280;65567;55.684;37.570;2023-09-19T10:33:25;99413.56;;;26.32;38.80
70217;BME280;65567;55.684;37.570;2023-09-19T10:35:51;99431.00;;;26.36;38.85
70217;BME280;65567;55.684;37.570;2023-09-19T10:38:19;99417.25;;;26.31;39.09
70217;BME280;65567;55.684;37.570;2023-09-19T10:40:49;99420.97;;;26.30;39.04
70217;BME280;65567;55.684;37.570;2023-09-19T10:43:17;99411.53;;;26.34;39.13
70217;BME280;65567;55.684;37.570;2023-09-19T10:45:45;99410.59;;;26.50;38.80
70217;BME280;65567;55.684;37.570;2023-09-19T10:48:12;99408.75;;;26.82;38.44
70217;BME280;65567;55.684;37.570;2023-09-19T10:50:48;99411.56;;;26.89;37.87
70217;BME280;65567;55.684;37.570;2023-09-19T10:53:16;99405.78;;;27.15;37.71
70217;BME280;65567;55.684;37.570;2023-09-19T10:58:28;99399.00;;;27.04;37.77
70217;BME280;65567;55.684;37.570;2023-09-19T11:00:58;99399.72;;;26.98;37.78
70217;BME280;65567;55.684;37.570;2023-09-19T11:03:38;99400.28;;;26.94;37.92
70217;BME280;65567;55.684;37.570;2023-09-19T11:09:03;99400.81;;;26.58;38.68
70217;BME280;65567;55.684;37.570;2023-09-19T11:11:46;99395.59;;;26.33;38.93
70217;BME280;65567;55.684;37.570;2023-09-19T11:14:16;99393.59;;;26.27;39.23
70217;BME280;65567;55.684;37.570;2023-09-19T11:30:40;99390.69;;;25.16;42.15
70217;BME280;65567;55.684;37.570;2023-09-19T11:33:28;99388.34;;;25.13;42.10
70217;BME280;65567;55.684;37.570;2023-09-19T11:36:06;99385.69;;;25.13;42.10
70217;BME280;65567;55.684;37.570;2023-09-19T11:43:52;99381.63;;;25.00;42.48
70217;BME280;65567;55.684;37.570;2023-09-19T11:46:20;99382.31;;;24.94;43.00
70217;BME280;65567;55.684;37.570;2023-09-19T11:48:50;99382.31;;;25.02;42.67
70217;BME280;65567;55.684;37.570;2023-09-19T11:51:20;99374.75;;;25.06;42.51
70217;BME280;65567;55.684;37.570;2023-09-19T11:53:58;99378.63;;;25.03;42.96
70217;BME280;65567;55.684;37.570;2023-09-19T11:56:27;99367.25;;;25.01;42.90
70217;BME280;65567;55.684;37.570;2023-09-19T11:58:55;99367.59;;;24.82;43.41
70217;BME280;65567;55.684;37.570;2023-09-19T12:03:58;99360.88;;;24.78;43.78
70217;BME280;65567;55.684;37.570;2023-09-19T12:06:24;99359.22;;;24.93;43.57
70217;BME280;65567;55.684;37.570;2023-09-19T12:08:51;99354.84;;;25.00;43.38
70217;BME280;65567;55.684;37.570;2023-09-19T12:11:21;99357.19;;;24.87;43.54
70217;BME280;65567;55.684;37.570;2023-09-19T12:13:49;99351.81;;;24.79;43.87
70217;BME280;65567;55.684;37.570;2023-09-19T12:16:19;99345.16;;;24.83;43.92
70217;BME280;65567;55.684;37.570;2023-09-19T12:18:50;99350.47;;;24.74;43.89
70217;BME280;65567;55.684;37.570;2023-09-19T12:21:23;99342.47;;;24.91;43.47
70217;BME280;65567;55.684;37.570;2023-09-19T12:24:05;99331.53;;;25.01;43.44
70217;BME280;65567;55.684;37.570;2023-09-19T12:26:41;99338.75;;;25.00;43.70
70217;BME280;65567;55.684;37.570;2023-09-19T12:29:18;99326.38;;;25.07;43.69
70217;BME280;65567;55.684;37.570;2023-09-19T12:31:54;99309.63;;;24.97;43.98
70217;BME280;65567;55.684;37.570;2023-09-19T12:34:24;99314.78;;;25.07;43.90
70217;BME280;65567;55.684;37.570;2023-09-19T12:37:14;99321.69;;;24.85;44.14
70217;BME280;65567;55.684;37.570;2023-09-19T12:39:51;99314.66;;;24.92;44.00
70217;BME280;65567;55.684;37.570;2023-09-19T12:42:26;99313.00;;;24.83;44.04
70217;BME280;65567;55.684;37.570;2023-09-19T12:44:58;99311.47;;;24.97;44.10
70217;BME280;65567;55.684;37.570;2023-09-19T12:47:27;99305.75;;;24.91;44.09
70217;BME280;65567;55.684;37.570;2023-09-19T12:50:11;99307.28;;;24.86;44.09
70217;BME280;65567;55.684;37.570;2023-09-19T12:52:48;99305.59;;;24.85;44.24
70217;BME280;65567;55.684;37.570;2023-09-19T12:55:25;99306.25;;;25.03;43.73
70217;BME280;65567;55.684;37.570;2023-09-19T13:00:40;99301.72;;;25.12;43.64
70217;BME280;65567;55.684;37.570;2023-09-19T13:03:16;99304.75;;;25.09;43.91
70217;BME280;65567;55.684;37.570;2023-09-19T13:05:59;99292.84;;;25.12;43.99
70217;BME280;65567;55.684;37.570;2023-09-19T13:08:31;99294.69;;;25.19;43.61
70217;BME280;65567;55.684;37.570;2023-09-19T13:11:16;99287.44;;;25.28;43.62
70217;BME280;65567;55.684;37.570;2023-09-19T13:13:48;99293.00;;;25.35;43.21
70217;BME280;65567;55.684;37.570;2023-09-19T13:16:15;99287.41;;;25.45;42.81
70217;BME280;65567;55.684;37.570;2023-09-19T13:18:45;99289.91;;;25.54;42.64
70217;BME280;65567;55.684;37.570;2023-09-19T13:21:13;99282.91;;;25.45;42.35
70217;BME280;65567;55.684;37.570;2023-09-19T13:24:23;99285.06;;;25.33;42.41
70217;BME280;65567;55.684;37.570;2023-09-19T13:26:54;99292.13;;;25.34;42.49
70217;BME280;65567;55.684;37.570;2023-09-19T13:29:19;99284.78;;;25.36;42.83
70217;BME280;65567;55.684;37.570;2023-09-19T13:31:49;99285.81;;;25.11;43.34
70217;BME280;65567;55.684;37.570;2023-09-19T13:34:15;99284.47;;;24.98;44.13
70217;BME280;65567;55.684;37.570;2023-09-19T13:36:43;99275.97;;;24.95;44.42
70217;BME280;65567;55.684;37.570;2023-09-19T13:39:09;99273.97;;;24.80;44.83
70217;BME280;65567;55.684;37.570;2023-09-19T13:41:35;99274.63;;;24.82;44.79
70217;BME280;65567;55.684;37.570;2023-09-19T13:44:09;99272.13;;;24.97;44.75
70217;BME280;65567;55.684;37.570;2023-09-19T13:46:39;99267.75;;;24.96;44.56
70217;BME280;65567;55.684;37.570;2023-09-19T13:49:05;99257.22;;;24.78;44.87
70217;BME280;65567;55.684;37.570;2023-09-19T13:51:32;99263.59;;;24.77;45.25
70217;BME280;65567;55.684;37.570;2023-09-19T13:53:58;99270.44;;;24.47;46.02